sensor_id;sensor_type;location;lat;lon;timestamp;temperature;humidity
19206;DHT22;59358;52.134;5.596;2024-02-23T00:00:50;4.60;99.90
19206;DHT22;59358;52.134;5.596;2024-02-23T00:03:17;4.60;99.90
19206;DHT22;59358;52.134;5.596;2024-02-23T00:05:44;4.70;99.90
19206;DHT22;59358;52.134;5.596;2024-02-23T00:08:11;4.70;99.90
19206;DHT22;59358;52.134;5.596;2024-02-23T00:10:38;4.70;99.90
19206;DHT22;59358;52.134;5.596;2024-02-23T00:13:04;4.70;99.90
19206;DHT22;59358;52.134;5.596;2024-02-23T00:15:32;4.80;99.90
19206;DHT22;59358;52.134;5.596;2024-02-23T00:17:59;4.80;99.90
19206;DHT22;59358;52.134;5.596;2024-02-23T00:20:29;4.90;99.90
19206;DHT22;59358;52.134;5.596;2024-02-23T00:22:56;5.00;99.90
19206;DHT22;59358;52.134;5.596;2024-02-23T00:25:22;5.00;99.90
19206;DHT22;59358;52.134;5.596;2024-02-23T00:27:49;5.10;99.90
19206;DHT22;59358;52.134;5.596;2024-02-23T00:30:16;5.20;99.90
19206;DHT22;59358;52.134;5.596;2024-02-23T00:32:44;5.20;99.90
19206;DHT22;59358;52.134;5.596;2024-02-23T00:35:11;5.30;99.90
19206;DHT22;59358;52.134;5.596;2024-02-23T00:37:38;5.20;99.90
19206;DHT22;59358;52.134;5.596;2024-02-23T00:40:06;5.30;99.90
19206;DHT22;59358;52.134;5.596;2024-02-23T00:42:33;5.30;99.90
19206;DHT22;59358;52.134;5.596;2024-02-23T00:45:00;5.30;99.90
19206;DHT22;59358;52.134;5.596;2024-02-23T00:47:27;5.40;99.90
19206;DHT22;59358;52.134;5.596;2024-02-23T00:49:55;5.40;99.90
19206;DHT22;59358;52.134;5.596;2024-02-23T00:52:22;5.50;99.90
19206;DHT22;59358;52.134;5.596;2024-02-23T00:54:49;5.50;99.90
19206;DHT22;59358;52.134;5.596;2024-02-23T00:57:15;5.50;99.90
19206;DHT22;59358;52.134;5.596;2024-02-23T00:59:44;5.60;99.90
19206;DHT22;59358;52.134;5.596;2024-02-23T01:02:11;5.60;99.90
19206;DHT22;59358;52.134;5.596;2024-02-23T01:04:38;5.50;99.90
19206;DHT22;59358;52.134;5.596;2024-02-23T01:07:06;5.40;99.90
19206;DHT22;59358;52.134;5.596;2024-02-23T01:09:32;5.40;99.90
19206;DHT22;59358;52.134;5.596;2024-02-23T01:12:00;5.40;99.90
19206;DHT22;59358;52.134;5.596;2024-02-23T01:14:26;5.50;99.90
19206;DHT22;59358;52.134;5.596;2024-02-23T01:16:53;5.40;99.90
19206;DHT22;59358;52.134;5.596;2024-02-23T01:19:20;5.40;99.90
19206;DHT22;59358;52.134;5.596;2024-02-23T01:21:47;5.30;99.90
19206;DHT22;59358;52.134;5.596;2024-02-23T01:24:15;5.20;99.90
19206;DHT22;59358;52.134;5.596;2024-02-23T01:26:42;5.20;99.90
19206;DHT22;59358;52.134;5.596;2024-02-23T01:29:09;5.10;99.90
19206;DHT22;59358;52.134;5.596;2024-02-23T01:31:36;4.80;99.90
19206;DHT22;59358;52.134;5.596;2024-02-23T01:34:03;4.70;99.90
19206;DHT22;59358;52.134;5.596;2024-02-23T01:36:31;4.60;99.90
19206;DHT22;59358;52.134;5.596;2024-02-23T01:38:58;4.60;99.90
19206;DHT22;59358;52.134;5.596;2024-02-23T01:41:26;4.40;99.90
19206;DHT22;59358;52.134;5.596;2024-02-23T01:43:52;4.40;99.90
19206;DHT22;59358;52.134;5.596;2024-02-23T01:46:19;4.30;99.90
19206;DHT22;59358;52.134;5.596;2024-02-23T01:48:46;4.40;99.90
19206;DHT22;59358;52.134;5.596;2024-02-23T01:51:13;4.50;99.90
19206;DHT22;59358;52.134;5.596;2024-02-23T01:53:40;4.60;99.90
19206;DHT22;59358;52.134;5.596;2024-02-23T01:56:07;4.70;99.90
19206;DHT22;59358;52.134;5.596;2024-02-23T01:58:37;4.80;99.90
19206;DHT22;59358;52.134;5.596;2024-02-23T02:01:04;4.90;99.90
19206;DHT22;59358;52.134;5.596;2024-02-23T02:03:33;4.90;99.90
19206;DHT22;59358;52.134;5.596;2024-02-23T02:06:00;5.00;99.90
19206;DHT22;59358;52.134;5.596;2024-02-23T02:08:27;5.10;99.90
19206;DHT22;59358;52.134;5.596;2024-02-23T02:10:54;5.10;99.90
19206;DHT22;59358;52.134;5.596;2024-02-23T02:13:20;5.10;99.90
19206;DHT22;59358;52.134;5.596;2024-02-23T02:15:48;5.10;99.90
19206;DHT22;59358;52.134;5.596;2024-02-23T02:18:15;5.20;99.90
19206;DHT22;59358;52.134;5.596;2024-02-23T02:20:51;5.20;99.90
19206;DHT22;59358;52.134;5.596;2024-02-23T02:23:18;5.10;99.90
19206;DHT22;59358;52.134;5.596;2024-02-23T02:25:45;5.10;99.90
19206;DHT22;59358;52.134;5.596;2024-02-23T02:28:12;5.10;99.90
19206;DHT22;59358;52.134;5.596;2024-02-23T02:30:38;5.00;99.90
19206;DHT22;59358;52.134;5.596;2024-02-23T02:33:07;5.00;99.90
19206;DHT22;59358;52.134;5.596;2024-02-23T02:35:33;4.90;99.90
19206;DHT22;59358;52.134;5.596;2024-02-23T02:38:00;4.90;99.90
19206;DHT22;59358;52.134;5.596;2024-02-23T02:40:27;4.90;99.90
19206;DHT22;59358;52.134;5.596;2024-02-23T02:42:54;4.90;99.90
19206;DHT22;59358;52.134;5.596;2024-02-23T02:45:21;4.90;99.90
19206;DHT22;59358;52.134;5.596;2024-02-23T02:47:48;4.90;99.90
19206;DHT22;59358;52.134;5.596;2024-02-23T02:50:16;4.80;99.90
19206;DHT22;59358;52.134;5.596;2024-02-23T02:52:43;4.80;99.90
19206;DHT22;59358;52.134;5.596;2024-02-23T02:55:10;4.90;99.90
19206;DHT22;59358;52.134;5.596;2024-02-23T02:57:37;4.90;99.90
19206;DHT22;59358;52.134;5.596;2024-02-23T03:00:04;4.90;99.90
19206;DHT22;59358;52.134;5.596;2024-02-23T03:02:31;4.90;99.90
19206;DHT22;59358;52.134;5.596;2024-02-23T03:04:58;4.80;99.90
19206;DHT22;59358;52.134;5.596;2024-02-23T03:07:26;4.80;99.90
19206;DHT22;59358;52.134;5.596;2024-02-23T03:09:53;4.80;99.90
19206;DHT22;59358;52.134;5.596;2024-02-23T03:12:20;4.70;99.90
19206;DHT22;59358;52.134;5.596;2024-02-23T03:14:47;4.70;99.90
19206;DHT22;59358;52.134;5.596;2024-02-23T03:17:14;4.70;99.90
19206;DHT22;59358;52.134;5.596;2024-02-23T03:19:40;4.70;99.90
19206;DHT22;59358;52.134;5.596;2024-02-23T03:22:07;4.70;99.90
19206;DHT22;59358;52.134;5.596;2024-02-23T03:24:36;4.70;99.90
19206;DHT22;59358;52.134;5.596;2024-02-23T03:27:03;4.70;99.90
19206;DHT22;59358;52.134;5.596;2024-02-23T03:29:30;4.80;99.90
19206;DHT22;59358;52.134;5.596;2024-02-23T03:31:57;4.80;99.90
19206;DHT22;59358;52.134;5.596;2024-02-23T03:34:24;4.80;99.90
19206;DHT22;59358;52.134;5.596;2024-02-23T03:36:51;4.80;99.90
19206;DHT22;59358;52.134;5.596;2024-02-23T03:39:18;4.80;99.90
19206;DHT22;59358;52.134;5.596;2024-02-23T03:41:46;4.70;99.90
19206;DHT22;59358;52.134;5.596;2024-02-23T03:44:13;4.70;99.90
19206;DHT22;59358;52.134;5.596;2024-02-23T03:46:40;4.70;99.90
19206;DHT22;59358;52.134;5.596;2024-02-23T03:49:06;4.80;99.90
19206;DHT22;59358;52.134;5.596;2024-02-23T03:51:33;4.80;99.90
19206;DHT22;59358;52.134;5.596;2024-02-23T03:54:02;4.80;99.90
19206;DHT22;59358;52.134;5.596;2024-02-23T03:56:29;4.80;99.90
19206;DHT22;59358;52.134;5.596;2024-02-23T03:58:57;4.80;99.90
19206;DHT22;59358;52.134;5.596;2024-02-23T04:01:24;4.80;99.90
19206;DHT22;59358;52.134;5.596;2024-02-23T04:03:50;4.80;99.90
19206;DHT22;59358;52.134;5.596;2024-02-23T04:06:17;4.70;99.90
19206;DHT22;59358;52.134;5.596;2024-02-23T04:08:44;4.80;99.90
19206;DHT22;59358;52.134;5.596;2024-02-23T04:11:13;4.80;99.90
19206;DHT22;59358;52.134;5.596;2024-02-23T04:13:39;4.70;99.90
19206;DHT22;59358;52.134;5.596;2024-02-23T04:16:07;4.70;99.90
19206;DHT22;59358;52.134;5.596;2024-02-23T04:18:34;4.70;99.90
19206;DHT22;59358;52.134;5.596;2024-02-23T04:21:01;4.70;99.90
19206;DHT22;59358;52.134;5.596;2024-02-23T04:23:28;4.70;99.90
19206;DHT22;59358;52.134;5.596;2024-02-23T04:25:54;4.70;99.90
19206;DHT22;59358;52.134;5.596;2024-02-23T04:28:21;4.70;99.90
19206;DHT22;59358;52.134;5.596;2024-02-23T04:30:48;4.70;99.90
19206;DHT22;59358;52.134;5.596;2024-02-23T04:33:16;4.70;99.90
19206;DHT22;59358;52.134;5.596;2024-02-23T04:35:43;4.70;99.90
19206;DHT22;59358;52.134;5.596;2024-02-23T04:38:10;4.70;99.90
19206;DHT22;59358;52.134;5.596;2024-02-23T04:40:36;4.70;99.90
19206;DHT22;59358;52.134;5.596;2024-02-23T04:43:04;4.70;99.90
19206;DHT22;59358;52.134;5.596;2024-02-23T04:45:30;4.70;99.90
19206;DHT22;59358;52.134;5.596;2024-02-23T04:47:57;4.70;99.90
19206;DHT22;59358;52.134;5.596;2024-02-23T04:50:25;4.60;99.90
19206;DHT22;59358;52.134;5.596;2024-02-23T04:52:52;4.60;99.90
19206;DHT22;59358;52.134;5.596;2024-02-23T04:55:19;4.70;99.90
19206;DHT22;59358;52.134;5.596;2024-02-23T04:57:45;4.70;99.90
19206;DHT22;59358;52.134;5.596;2024-02-23T05:00:13;4.70;99.90
19206;DHT22;59358;52.134;5.596;2024-02-23T05:02:39;4.80;99.90
19206;DHT22;59358;52.134;5.596;2024-02-23T05:05:07;4.80;99.90
19206;DHT22;59358;52.134;5.596;2024-02-23T05:07:35;4.80;99.90
19206;DHT22;59358;52.134;5.596;2024-02-23T05:10:02;4.90;99.90
19206;DHT22;59358;52.134;5.596;2024-02-23T05:12:29;4.90;99.90
19206;DHT22;59358;52.134;5.596;2024-02-23T05:14:56;4.90;99.90
19206;DHT22;59358;52.134;5.596;2024-02-23T05:17:23;5.00;99.90
19206;DHT22;59358;52.134;5.596;2024-02-23T05:19:49;4.90;99.90
19206;DHT22;59358;52.134;5.596;2024-02-23T05:22:16;5.00;99.90
19206;DHT22;59358;52.134;5.596;2024-02-23T05:24:46;5.00;99.90
19206;DHT22;59358;52.134;5.596;2024-02-23T05:27:12;5.00;99.90
19206;DHT22;59358;52.134;5.596;2024-02-23T05:29:39;5.10;99.90
19206;DHT22;59358;52.134;5.596;2024-02-23T05:32:06;5.10;99.90
19206;DHT22;59358;52.134;5.596;2024-02-23T05:34:33;5.10;99.90
19206;DHT22;59358;52.134;5.596;2024-02-23T05:37:00;5.20;99.90
19206;DHT22;59358;52.134;5.596;2024-02-23T05:39:27;5.20;99.90
19206;DHT22;59358;52.134;5.596;2024-02-23T05:41:57;5.30;99.90
19206;DHT22;59358;52.134;5.596;2024-02-23T05:44:25;5.20;99.90
19206;DHT22;59358;52.134;5.596;2024-02-23T05:46:52;5.30;99.90
19206;DHT22;59358;52.134;5.596;2024-02-23T05:49:19;5.30;99.90
19206;DHT22;59358;52.134;5.596;2024-02-23T05:51:45;5.30;99.90
19206;DHT22;59358;52.134;5.596;2024-02-23T05:54:12;5.40;99.90
19206;DHT22;59358;52.134;5.596;2024-02-23T05:56:39;5.40;99.90
19206;DHT22;59358;52.134;5.596;2024-02-23T05:59:07;5.40;99.90
19206;DHT22;59358;52.134;5.596;2024-02-23T06:01:34;5.40;99.90
19206;DHT22;59358;52.134;5.596;2024-02-23T06:04:01;5.40;99.90
19206;DHT22;59358;52.134;5.596;2024-02-23T06:06:28;5.30;99.90
19206;DHT22;59358;52.134;5.596;2024-02-23T06:08:55;5.40;99.90
19206;DHT22;59358;52.134;5.596;2024-02-23T06:11:21;5.40;99.90
19206;DHT22;59358;52.134;5.596;2024-02-23T06:13:48;5.40;99.90
19206;DHT22;59358;52.134;5.596;2024-02-23T06:16:16;5.40;99.90
19206;DHT22;59358;52.134;5.596;2024-02-23T06:18:43;5.50;99.90
19206;DHT22;59358;52.134;5.596;2024-02-23T06:21:13;5.50;99.90
19206;DHT22;59358;52.134;5.596;2024-02-23T06:23:40;5.50;99.90
19206;DHT22;59358;52.134;5.596;2024-02-23T06:26:07;5.50;99.90
19206;DHT22;59358;52.134;5.596;2024-02-23T06:28:34;5.50;99.90
19206;DHT22;59358;52.134;5.596;2024-02-23T06:31:02;5.50;99.90
19206;DHT22;59358;52.134;5.596;2024-02-23T06:33:31;5.60;99.90
19206;DHT22;59358;52.134;5.596;2024-02-23T06:35:58;5.60;99.90
19206;DHT22;59358;52.134;5.596;2024-02-23T06:38:25;5.60;99.90
19206;DHT22;59358;52.134;5.596;2024-02-23T06:40:52;5.60;99.90
19206;DHT22;59358;52.134;5.596;2024-02-23T06:43:18;5.60;99.90
19206;DHT22;59358;52.134;5.596;2024-02-23T06:45:45;5.70;99.90
19206;DHT22;59358;52.134;5.596;2024-02-23T06:48:12;5.60;99.90
19206;DHT22;59358;52.134;5.596;2024-02-23T06:50:40;5.70;99.90
19206;DHT22;59358;52.134;5.596;2024-02-23T06:53:07;5.70;99.90
19206;DHT22;59358;52.134;5.596;2024-02-23T06:55:34;5.70;99.90
19206;DHT22;59358;52.134;5.596;2024-02-23T06:58:01;5.70;99.90
19206;DHT22;59358;52.134;5.596;2024-02-23T07:00:30;5.70;99.90
19206;DHT22;59358;52.134;5.596;2024-02-23T07:02:57;5.70;99.90
19206;DHT22;59358;52.134;5.596;2024-02-23T07:05:27;5.70;99.90
19206;DHT22;59358;52.134;5.596;2024-02-23T07:07:55;5.80;99.90
19206;DHT22;59358;52.134;5.596;2024-02-23T07:10:22;5.80;99.90
19206;DHT22;59358;52.134;5.596;2024-02-23T07:12:50;5.80;99.90
19206;DHT22;59358;52.134;5.596;2024-02-23T07:15:18;5.80;99.90
19206;DHT22;59358;52.134;5.596;2024-02-23T07:17:45;5.90;99.90
19206;DHT22;59358;52.134;5.596;2024-02-23T07:20:12;5.90;99.90
19206;DHT22;59358;52.134;5.596;2024-02-23T07:22:39;5.90;99.90
19206;DHT22;59358;52.134;5.596;2024-02-23T07:25:11;5.90;99.90
19206;DHT22;59358;52.134;5.596;2024-02-23T07:27:38;6.00;99.90
19206;DHT22;59358;52.134;5.596;2024-02-23T07:30:06;6.00;99.90
19206;DHT22;59358;52.134;5.596;2024-02-23T07:32:33;6.00;99.90
19206;DHT22;59358;52.134;5.596;2024-02-23T07:34:59;6.00;99.90
19206;DHT22;59358;52.134;5.596;2024-02-23T07:37:26;6.00;99.90
19206;DHT22;59358;52.134;5.596;2024-02-23T07:39:53;6.10;99.90
19206;DHT22;59358;52.134;5.596;2024-02-23T07:42:21;6.10;99.90
19206;DHT22;59358;52.134;5.596;2024-02-23T07:44:48;6.20;99.90
19206;DHT22;59358;52.134;5.596;2024-02-23T07:47:15;6.20;99.90
19206;DHT22;59358;52.134;5.596;2024-02-23T07:49:42;6.20;99.90
19206;DHT22;59358;52.134;5.596;2024-02-23T07:52:09;6.20;99.90
19206;DHT22;59358;52.134;5.596;2024-02-23T07:54:36;6.20;99.90
19206;DHT22;59358;52.134;5.596;2024-02-23T07:57:03;6.30;99.90
19206;DHT22;59358;52.134;5.596;2024-02-23T07:59:31;6.30;99.90
19206;DHT22;59358;52.134;5.596;2024-02-23T08:01:58;6.40;99.90
19206;DHT22;59358;52.134;5.596;2024-02-23T08:04:25;6.40;99.90
19206;DHT22;59358;52.134;5.596;2024-02-23T08:06:52;6.40;99.90
19206;DHT22;59358;52.134;5.596;2024-02-23T08:09:18;6.40;99.90
19206;DHT22;59358;52.134;5.596;2024-02-23T08:11:47;6.60;99.90
19206;DHT22;59358;52.134;5.596;2024-02-23T08:14:15;6.50;99.90
19206;DHT22;59358;52.134;5.596;2024-02-23T08:16:43;6.40;99.90
19206;DHT22;59358;52.134;5.596;2024-02-23T08:19:10;6.40;99.90
19206;DHT22;59358;52.134;5.596;2024-02-23T08:21:37;6.40;99.90
19206;DHT22;59358;52.134;5.596;2024-02-23T08:24:05;6.50;99.90
19206;DHT22;59358;52.134;5.596;2024-02-23T08:26:32;6.50;99.90
19206;DHT22;59358;52.134;5.596;2024-02-23T08:29:00;6.50;99.90
19206;DHT22;59358;52.134;5.596;2024-02-23T08:31:27;6.70;99.90
19206;DHT22;59358;52.134;5.596;2024-02-23T08:33:55;6.70;99.90
19206;DHT22;59358;52.134;5.596;2024-02-23T08:36:22;6.70;99.90
19206;DHT22;59358;52.134;5.596;2024-02-23T08:38:49;6.70;99.90
19206;DHT22;59358;52.134;5.596;2024-02-23T08:41:15;6.70;99.90
19206;DHT22;59358;52.134;5.596;2024-02-23T08:43:42;6.70;99.90
19206;DHT22;59358;52.134;5.596;2024-02-23T08:46:09;6.70;99.90
19206;DHT22;59358;52.134;5.596;2024-02-23T08:48:37;6.80;99.90
19206;DHT22;59358;52.134;5.596;2024-02-23T08:51:05;6.80;99.90
19206;DHT22;59358;52.134;5.596;2024-02-23T08:53:32;6.70;99.90
19206;DHT22;59358;52.134;5.596;2024-02-23T08:55:59;6.70;99.90
19206;DHT22;59358;52.134;5.596;2024-02-23T08:58:26;6.60;99.90
19206;DHT22;59358;52.134;5.596;2024-02-23T09:00:53;6.70;99.90
19206;DHT22;59358;52.134;5.596;2024-02-23T09:03:19;6.70;99.90
19206;DHT22;59358;52.134;5.596;2024-02-23T09:05:46;6.70;99.90
19206;DHT22;59358;52.134;5.596;2024-02-23T09:08:15;6.70;99.90
19206;DHT22;59358;52.134;5.596;2024-02-23T09:10:41;6.60;99.90
19206;DHT22;59358;52.134;5.596;2024-02-23T09:13:10;6.70;99.90
19206;DHT22;59358;52.134;5.596;2024-02-23T09:15:37;6.60;99.90
19206;DHT22;59358;52.134;5.596;2024-02-23T09:18:07;6.70;99.90
19206;DHT22;59358;52.134;5.596;2024-02-23T09:20:34;6.70;99.90
19206;DHT22;59358;52.134;5.596;2024-02-23T09:23:01;6.80;99.90
19206;DHT22;59358;52.134;5.596;2024-02-23T09:25:29;6.80;99.90
19206;DHT22;59358;52.134;5.596;2024-02-23T09:27:57;6.80;99.90
19206;DHT22;59358;52.134;5.596;2024-02-23T09:30:24;6.80;99.90
19206;DHT22;59358;52.134;5.596;2024-02-23T09:32:50;6.90;99.90
19206;DHT22;59358;52.134;5.596;2024-02-23T09:35:17;6.70;99.90
19206;DHT22;59358;52.134;5.596;2024-02-23T09:37:45;6.70;99.90
19206;DHT22;59358;52.134;5.596;2024-02-23T09:40:12;6.60;99.90
19206;DHT22;59358;52.134;5.596;2024-02-23T09:42:42;6.70;99.90
19206;DHT22;59358;52.134;5.596;2024-02-23T09:45:11;6.70;99.90
19206;DHT22;59358;52.134;5.596;2024-02-23T09:47:38;6.80;99.90
19206;DHT22;59358;52.134;5.596;2024-02-23T09:50:08;7.00;99.90
19206;DHT22;59358;52.134;5.596;2024-02-23T09:52:36;6.90;99.90
19206;DHT22;59358;52.134;5.596;2024-02-23T09:55:03;7.00;99.90
19206;DHT22;59358;52.134;5.596;2024-02-23T09:57:30;7.10;99.90
19206;DHT22;59358;52.134;5.596;2024-02-23T09:59:58;7.00;99.90
19206;DHT22;59358;52.134;5.596;2024-02-23T10:02:25;7.10;99.90
19206;DHT22;59358;52.134;5.596;2024-02-23T10:04:54;7.00;99.90
19206;DHT22;59358;52.134;5.596;2024-02-23T10:07:23;6.90;99.90
19206;DHT22;59358;52.134;5.596;2024-02-23T10:09:52;6.80;99.90
19206;DHT22;59358;52.134;5.596;2024-02-23T10:12:19;6.70;99.90
19206;DHT22;59358;52.134;5.596;2024-02-23T10:14:45;6.60;99.90
19206;DHT22;59358;52.134;5.596;2024-02-23T10:17:14;6.60;99.90
19206;DHT22;59358;52.134;5.596;2024-02-23T10:19:40;6.70;99.90
19206;DHT22;59358;52.134;5.596;2024-02-23T10:22:07;6.90;99.90
19206;DHT22;59358;52.134;5.596;2024-02-23T10:24:37;6.90;99.90
19206;DHT22;59358;52.134;5.596;2024-02-23T10:27:04;7.00;99.90
19206;DHT22;59358;52.134;5.596;2024-02-23T10:29:31;7.00;99.90
19206;DHT22;59358;52.134;5.596;2024-02-23T10:31:58;7.20;99.90
19206;DHT22;59358;52.134;5.596;2024-02-23T10:34:27;7.30;99.90
19206;DHT22;59358;52.134;5.596;2024-02-23T10:36:56;7.30;99.90
19206;DHT22;59358;52.134;5.596;2024-02-23T10:39:24;7.30;99.90
19206;DHT22;59358;52.134;5.596;2024-02-23T10:41:57;7.40;99.90
19206;DHT22;59358;52.134;5.596;2024-02-23T10:44:28;7.50;99.90
19206;DHT22;59358;52.134;5.596;2024-02-23T10:46:55;7.40;99.90
19206;DHT22;59358;52.134;5.596;2024-02-23T10:49:24;7.30;99.90
19206;DHT22;59358;52.134;5.596;2024-02-23T10:51:54;7.10;99.90
19206;DHT22;59358;52.134;5.596;2024-02-23T10:54:22;7.10;99.90
19206;DHT22;59358;52.134;5.596;2024-02-23T10:56:50;7.00;99.90
19206;DHT22;59358;52.134;5.596;2024-02-23T10:59:17;6.90;99.90
19206;DHT22;59358;52.134;5.596;2024-02-23T11:01:46;6.90;99.90
19206;DHT22;59358;52.134;5.596;2024-02-23T11:04:15;6.80;99.90
19206;DHT22;59358;52.134;5.596;2024-02-23T11:06:42;6.80;99.90
19206;DHT22;59358;52.134;5.596;2024-02-23T11:09:12;6.90;99.90
19206;DHT22;59358;52.134;5.596;2024-02-23T11:11:39;7.10;99.90
19206;DHT22;59358;52.134;5.596;2024-02-23T11:14:08;7.20;99.90
19206;DHT22;59358;52.134;5.596;2024-02-23T11:16:38;7.30;99.90
19206;DHT22;59358;52.134;5.596;2024-02-23T11:19:08;7.30;99.90
19206;DHT22;59358;52.134;5.596;2024-02-23T11:21:35;7.50;99.90
19206;DHT22;59358;52.134;5.596;2024-02-23T11:24:04;7.80;99.90
19206;DHT22;59358;52.134;5.596;2024-02-23T11:26:33;7.90;99.90
19206;DHT22;59358;52.134;5.596;2024-02-23T11:29:10;7.80;99.90
19206;DHT22;59358;52.134;5.596;2024-02-23T11:31:44;7.80;99.90
19206;DHT22;59358;52.134;5.596;2024-02-23T11:34:11;7.90;99.90
19206;DHT22;59358;52.134;5.596;2024-02-23T11:36:39;8.00;99.90
19206;DHT22;59358;52.134;5.596;2024-02-23T11:39:10;8.00;99.90
19206;DHT22;59358;52.134;5.596;2024-02-23T11:41:39;8.20;99.90
19206;DHT22;59358;52.134;5.596;2024-02-23T11:44:06;8.20;99.90
19206;DHT22;59358;52.134;5.596;2024-02-23T11:46:33;8.20;99.90
19206;DHT22;59358;52.134;5.596;2024-02-23T11:49:00;8.20;99.90
19206;DHT22;59358;52.134;5.596;2024-02-23T11:51:27;8.30;99.90
19206;DHT22;59358;52.134;5.596;2024-02-23T11:53:56;8.30;99.90
19206;DHT22;59358;52.134;5.596;2024-02-23T11:56:25;8.20;99.90
19206;DHT22;59358;52.134;5.596;2024-02-23T11:58:54;8.30;99.90
19206;DHT22;59358;52.134;5.596;2024-02-23T12:01:21;8.30;99.90
19206;DHT22;59358;52.134;5.596;2024-02-23T12:03:48;8.20;99.90
19206;DHT22;59358;52.134;5.596;2024-02-23T12:06:15;8.20;99.90
19206;DHT22;59358;52.134;5.596;2024-02-23T12:08:44;8.30;99.90
19206;DHT22;59358;52.134;5.596;2024-02-23T12:11:12;8.30;99.90
19206;DHT22;59358;52.134;5.596;2024-02-23T12:13:39;8.30;99.90
19206;DHT22;59358;52.134;5.596;2024-02-23T12:16:08;8.10;99.90
19206;DHT22;59358;52.134;5.596;2024-02-23T12:18:36;8.10;99.90
19206;DHT22;59358;52.134;5.596;2024-02-23T12:21:05;8.10;99.90
19206;DHT22;59358;52.134;5.596;2024-02-23T12:23:41;8.10;99.90
19206;DHT22;59358;52.134;5.596;2024-02-23T12:26:09;8.10;99.90
19206;DHT22;59358;52.134;5.596;2024-02-23T12:28:36;8.20;99.90
19206;DHT22;59358;52.134;5.596;2024-02-23T12:31:04;8.20;99.90
19206;DHT22;59358;52.134;5.596;2024-02-23T12:33:33;8.10;99.90
19206;DHT22;59358;52.134;5.596;2024-02-23T12:36:02;8.20;99.90
19206;DHT22;59358;52.134;5.596;2024-02-23T12:38:29;8.30;99.90
19206;DHT22;59358;52.134;5.596;2024-02-23T12:40:56;8.20;99.90
19206;DHT22;59358;52.134;5.596;2024-02-23T12:43:23;8.30;99.90
19206;DHT22;59358;52.134;5.596;2024-02-23T12:45:50;8.20;99.90
19206;DHT22;59358;52.134;5.596;2024-02-23T12:48:17;8.20;99.90
19206;DHT22;59358;52.134;5.596;2024-02-23T12:50:47;8.20;99.90
19206;DHT22;59358;52.134;5.596;2024-02-23T12:53:31;8.30;99.90
19206;DHT22;59358;52.134;5.596;2024-02-23T12:55:59;8.40;99.90
19206;DHT22;59358;52.134;5.596;2024-02-23T12:58:26;8.40;99.90
19206;DHT22;59358;52.134;5.596;2024-02-23T13:01:02;8.40;99.90
19206;DHT22;59358;52.134;5.596;2024-02-23T13:03:32;8.40;99.90
19206;DHT22;59358;52.134;5.596;2024-02-23T13:06:01;8.30;99.90
19206;DHT22;59358;52.134;5.596;2024-02-23T13:08:29;8.40;99.90
19206;DHT22;59358;52.134;5.596;2024-02-23T13:10:57;8.40;99.90
19206;DHT22;59358;52.134;5.596;2024-02-23T13:13:24;8.40;99.90
19206;DHT22;59358;52.134;5.596;2024-02-23T13:15:52;8.60;99.90
19206;DHT22;59358;52.134;5.596;2024-02-23T13:18:19;8.60;99.90
19206;DHT22;59358;52.134;5.596;2024-02-23T13:20:46;8.70;99.90
19206;DHT22;59358;52.134;5.596;2024-02-23T13:23:15;8.60;99.90
19206;DHT22;59358;52.134;5.596;2024-02-23T13:25:42;8.60;99.90
19206;DHT22;59358;52.134;5.596;2024-02-23T13:28:09;8.60;99.90
19206;DHT22;59358;52.134;5.596;2024-02-23T13:30:36;8.60;99.90
19206;DHT22;59358;52.134;5.596;2024-02-23T13:33:04;8.60;99.90
19206;DHT22;59358;52.134;5.596;2024-02-23T13:35:31;8.60;99.90
19206;DHT22;59358;52.134;5.596;2024-02-23T13:37:58;8.60;99.90
19206;DHT22;59358;52.134;5.596;2024-02-23T13:40:30;8.70;99.90
19206;DHT22;59358;52.134;5.596;2024-02-23T13:42:57;8.80;99.90
19206;DHT22;59358;52.134;5.596;2024-02-23T13:45:24;8.80;99.90
19206;DHT22;59358;52.134;5.596;2024-02-23T13:47:58;8.90;99.90
19206;DHT22;59358;52.134;5.596;2024-02-23T13:50:25;9.00;99.90
19206;DHT22;59358;52.134;5.596;2024-02-23T13:52:52;8.90;99.90
19206;DHT22;59358;52.134;5.596;2024-02-23T13:55:19;8.80;99.90
19206;DHT22;59358;52.134;5.596;2024-02-23T13:57:48;8.70;99.90
19206;DHT22;59358;52.134;5.596;2024-02-23T14:00:16;8.80;99.90
19206;DHT22;59358;52.134;5.596;2024-02-23T14:02:44;8.80;99.90
19206;DHT22;59358;52.134;5.596;2024-02-23T14:05:11;8.70;99.90
19206;DHT22;59358;52.134;5.596;2024-02-23T14:07:38;8.80;99.90
19206;DHT22;59358;52.134;5.596;2024-02-23T14:10:06;8.80;99.90
19206;DHT22;59358;52.134;5.596;2024-02-23T14:12:34;8.80;99.90
19206;DHT22;59358;52.134;5.596;2024-02-23T14:15:02;8.90;99.90
19206;DHT22;59358;52.134;5.596;2024-02-23T14:17:30;8.90;99.90
19206;DHT22;59358;52.134;5.596;2024-02-23T14:19:57;8.80;99.90
19206;DHT22;59358;52.134;5.596;2024-02-23T14:22:23;8.90;99.90
19206;DHT22;59358;52.134;5.596;2024-02-23T14:24:50;8.80;99.90
19206;DHT22;59358;52.134;5.596;2024-02-23T14:27:17;8.80;99.90
19206;DHT22;59358;52.134;5.596;2024-02-23T14:29:44;8.90;99.90
19206;DHT22;59358;52.134;5.596;2024-02-23T14:32:15;8.90;99.90
19206;DHT22;59358;52.134;5.596;2024-02-23T14:34:43;8.80;99.90
19206;DHT22;59358;52.134;5.596;2024-02-23T14:37:09;9.00;99.90
19206;DHT22;59358;52.134;5.596;2024-02-23T14:39:36;9.10;99.90
19206;DHT22;59358;52.134;5.596;2024-02-23T14:42:03;9.10;99.90
19206;DHT22;59358;52.134;5.596;2024-02-23T14:44:30;9.10;99.90
19206;DHT22;59358;52.134;5.596;2024-02-23T14:46:57;9.20;99.90
19206;DHT22;59358;52.134;5.596;2024-02-23T14:49:25;9.20;99.90
19206;DHT22;59358;52.134;5.596;2024-02-23T14:51:52;9.20;99.90
19206;DHT22;59358;52.134;5.596;2024-02-23T14:54:19;9.20;99.90
19206;DHT22;59358;52.134;5.596;2024-02-23T14:56:46;9.30;99.90
19206;DHT22;59358;52.134;5.596;2024-02-23T14:59:13;9.40;99.90
19206;DHT22;59358;52.134;5.596;2024-02-23T15:01:40;9.40;99.90
19206;DHT22;59358;52.134;5.596;2024-02-23T15:04:07;9.50;99.90
19206;DHT22;59358;52.134;5.596;2024-02-23T15:06:35;9.50;99.90
19206;DHT22;59358;52.134;5.596;2024-02-23T15:09:03;9.60;99.90
19206;DHT22;59358;52.134;5.596;2024-02-23T15:11:29;9.60;99.90
19206;DHT22;59358;52.134;5.596;2024-02-23T15:13:56;9.40;99.90
19206;DHT22;59358;52.134;5.596;2024-02-23T15:16:24;9.40;99.90
19206;DHT22;59358;52.134;5.596;2024-02-23T15:18:51;9.30;99.90
19206;DHT22;59358;52.134;5.596;2024-02-23T15:21:17;9.30;99.90
19206;DHT22;59358;52.134;5.596;2024-02-23T15:23:45;9.20;99.90
19206;DHT22;59358;52.134;5.596;2024-02-23T15:26:12;9.20;99.90
19206;DHT22;59358;52.134;5.596;2024-02-23T15:28:39;9.30;99.90
19206;DHT22;59358;52.134;5.596;2024-02-23T15:31:06;9.10;99.90
19206;DHT22;59358;52.134;5.596;2024-02-23T15:33:34;9.10;99.90
19206;DHT22;59358;52.134;5.596;2024-02-23T15:36:01;8.90;99.90
19206;DHT22;59358;52.134;5.596;2024-02-23T15:38:30;8.90;99.90
19206;DHT22;59358;52.134;5.596;2024-02-23T15:40:58;8.90;99.90
19206;DHT22;59358;52.134;5.596;2024-02-23T15:43:25;8.90;99.90
19206;DHT22;59358;52.134;5.596;2024-02-23T15:45:53;8.80;99.90